KPHF/PHF METAR and TAF weather

Enter ICAO airport designator
Station Type Date Time Source
KPHF METAR 2020/01/20 15:54 UTC NOAA

KPHF 201554Z 34009G20KT 10SM FEW038 01/M11 A3036 RMK AO2 SLP279 T00061106


Station Type Date Time Source
KPHF Decoded METAR 2020/01/20 15:54 UTC NOAA

WILLIAMSBURG INTERNATIONAL AIRPORT , VA, United States (KPHF) 37-08N 76-30W 12M
Jan 20, 2020 - 10:54 AM EST / 2020.01.20 1554 UTC
Wind: from the NNW (340 degrees) at 10 MPH (9 KT) gusting to 23 MPH (20 KT):0
Visibility: 10 mile(s):0
Sky conditions: mostly clear
Temperature: 33.1 F (0.6 C)
Windchill: 24 F (-4 C):1
Dew Point: 12.9 F (-10.6 C)
Relative Humidity: 42%
Pressure (altimeter): 30.36 in. Hg (1028 hPa)
ob: KPHF 201554Z 34009G20KT 10SM FEW038 01/M11 A3036 RMK AO2 SLP279 T00061106
cycle: 16

Station Type Date Time Source
KPHF TAF 2020/01/20 12:24 UTC NOAA

TAF KPHF 201120Z 2012/2112 35011G23KT P6SM SKC
FM201400 35012G19KT P6SM SKC
FM210000 36005KT P6SM SKC

Example: see airport list